createdAt,value
2024-03-05T00:01:20.609Z,88.50
2024-03-05T00:03:49.891Z,88.40
2024-03-05T00:06:18.455Z,88.20
2024-03-05T00:08:46.886Z,88.20
2024-03-05T00:11:15.172Z,88.70
2024-03-05T00:13:45.515Z,88.60
2024-03-05T00:16:13.829Z,88.70
2024-03-05T00:18:42.025Z,89.00
2024-03-05T00:21:10.349Z,89.10
2024-03-05T00:23:38.524Z,89.20
2024-03-05T00:26:06.921Z,88.90
2024-03-05T00:28:35.667Z,89.10
2024-03-05T00:31:05.505Z,89.20
2024-03-05T00:33:33.995Z,89.50
2024-03-05T00:36:04.670Z,89.60
2024-03-05T00:38:34.133Z,89.60
2024-03-05T00:41:02.805Z,89.40
2024-03-05T00:43:31.080Z,89.70
2024-03-05T00:45:59.947Z,89.80
2024-03-05T00:48:30.079Z,90.40
2024-03-05T00:50:58.306Z,90.60
2024-03-05T00:53:26.532Z,90.40
2024-03-05T00:55:55.158Z,90.30
2024-03-05T00:58:23.501Z,90.50
2024-03-05T01:00:51.855Z,90.30
2024-03-05T01:03:20.538Z,90.30
2024-03-05T01:05:50.268Z,90.70
2024-03-05T01:08:18.557Z,90.50
2024-03-05T01:10:47.761Z,90.30
2024-03-05T01:13:16.480Z,90.20
2024-03-05T01:15:45.046Z,90.30
2024-03-05T01:18:13.241Z,90.90
2024-03-05T01:20:42.905Z,90.60
2024-03-05T01:23:13.303Z,90.80
2024-03-05T01:25:41.870Z,91.80
2024-03-05T01:28:10.671Z,91.80
2024-03-05T01:30:41.313Z,91.50
2024-03-05T01:33:20.549Z,91.30
2024-03-05T01:35:49.818Z,91.70
2024-03-05T01:38:19.541Z,92.40
2024-03-05T01:40:47.635Z,92.00
2024-03-05T01:43:19.101Z,92.10
2024-03-05T01:46:09.719Z,91.40
2024-03-05T01:48:39.354Z,90.90
2024-03-05T01:51:36.006Z,90.90
2024-03-05T01:54:10.178Z,90.80
2024-03-05T01:56:38.655Z,91.20
2024-03-05T01:59:07.587Z,91.20
2024-03-05T02:01:37.030Z,91.20
2024-03-05T02:04:06.782Z,91.60
2024-03-05T02:06:36.034Z,90.90
2024-03-05T02:09:07.827Z,91.30
2024-03-05T02:11:40.837Z,91.20
2024-03-05T02:14:15.079Z,92.30
2024-03-05T02:16:43.763Z,92.20
2024-03-05T02:19:12.789Z,92.30
2024-03-05T02:21:42.305Z,92.00
2024-03-05T02:24:10.746Z,92.20
2024-03-05T02:26:39.327Z,92.90
2024-03-05T02:29:10.549Z,92.60
2024-03-05T02:31:38.883Z,92.20
2024-03-05T02:34:08.450Z,92.30
2024-03-05T02:36:39.202Z,92.40
2024-03-05T02:39:09.131Z,92.70
2024-03-05T02:41:37.397Z,93.20
2024-03-05T02:44:06.166Z,92.80
2024-03-05T02:46:37.005Z,92.70
2024-03-05T02:49:05.599Z,92.60
2024-03-05T02:51:33.928Z,93.00
2024-03-05T02:54:02.244Z,92.40
2024-03-05T02:56:32.102Z,92.50
2024-03-05T02:59:00.774Z,92.40
2024-03-05T03:01:29.294Z,92.50
2024-03-05T03:03:57.784Z,92.60
2024-03-05T03:06:25.962Z,92.30
2024-03-05T03:08:54.371Z,92.50
2024-03-05T03:11:24.191Z,92.10
2024-03-05T03:13:53.969Z,92.30
2024-03-05T03:16:22.237Z,92.30
2024-03-05T03:18:50.413Z,92.60
2024-03-05T03:21:18.500Z,93.50
2024-03-05T03:23:47.100Z,93.30
2024-03-05T03:26:15.595Z,93.30
2024-03-05T03:28:44.088Z,93.50
2024-03-05T03:31:14.316Z,93.10
2024-03-05T03:33:42.775Z,92.80
2024-03-05T03:36:12.711Z,92.80
2024-03-05T03:38:41.148Z,92.80
2024-03-05T03:41:09.578Z,93.30
2024-03-05T03:43:42.233Z,93.20
2024-03-05T03:46:10.532Z,93.60
2024-03-05T03:48:41.877Z,93.40
2024-03-05T03:51:10.460Z,93.20
2024-03-05T03:53:42.205Z,92.90
2024-03-05T03:56:10.565Z,93.30
2024-03-05T03:58:39.450Z,93.20
2024-03-05T04:01:08.727Z,93.40
2024-03-05T04:03:40.941Z,93.70
2024-03-05T04:06:09.116Z,93.50
2024-03-05T04:08:37.497Z,93.30
2024-03-05T04:11:06.288Z,92.60
2024-03-05T04:13:35.455Z,92.50
2024-03-05T04:16:05.775Z,92.90
2024-03-05T04:18:33.982Z,92.80
2024-03-05T04:21:04.078Z,92.70
2024-03-05T04:23:32.478Z,92.60
2024-03-05T04:26:08.368Z,92.10
2024-03-05T04:28:50.648Z,92.50
2024-03-05T04:31:20.399Z,92.40
2024-03-05T04:33:49.803Z,92.50
2024-03-05T04:36:19.667Z,92.40
2024-03-05T04:38:47.965Z,92.30
2024-03-05T04:41:16.890Z,91.80
2024-03-05T04:43:45.102Z,92.10
2024-03-05T04:46:13.593Z,92.20
2024-03-05T04:48:42.663Z,92.50
2024-03-05T04:51:11.333Z,92.20
2024-03-05T04:53:40.990Z,92.20
2024-03-05T04:56:09.690Z,92.10
2024-03-05T04:58:38.815Z,91.80
2024-03-05T05:01:07.049Z,91.80
2024-03-05T05:03:37.286Z,91.70
2024-03-05T05:06:07.016Z,91.80
2024-03-05T05:08:35.547Z,91.70
2024-03-05T05:11:05.974Z,92.10
2024-03-05T05:13:36.836Z,91.90
2024-03-05T05:16:06.338Z,91.90
2024-03-05T05:18:35.507Z,92.00
2024-03-05T05:21:04.502Z,91.40
2024-03-05T05:23:33.690Z,91.50
2024-03-05T05:26:02.826Z,92.10
2024-03-05T05:28:32.913Z,92.20
2024-03-05T05:31:01.099Z,92.50
2024-03-05T05:33:33.456Z,92.50
2024-03-05T05:36:02.027Z,91.90
2024-03-05T05:38:30.929Z,92.20
2024-03-05T05:40:59.407Z,92.50
2024-03-05T05:43:27.774Z,92.20
2024-03-05T05:45:57.359Z,92.20
2024-03-05T05:48:29.896Z,92.30
2024-03-05T05:50:59.927Z,92.10
2024-03-05T05:53:29.184Z,92.20
2024-03-05T05:55:57.714Z,92.40
2024-03-05T05:58:27.089Z,92.40
2024-03-05T06:00:55.551Z,92.60
2024-03-05T06:03:25.598Z,93.00
2024-03-05T06:05:54.185Z,93.10
2024-03-05T06:08:22.310Z,93.20
2024-03-05T06:10:51.365Z,93.00
2024-03-05T06:13:20.198Z,93.00
2024-03-05T06:15:49.869Z,92.40
2024-03-05T06:18:18.529Z,92.20
2024-03-05T06:20:49.302Z,92.50
2024-03-05T06:23:18.168Z,92.60
2024-03-05T06:25:47.764Z,93.00
2024-03-05T06:28:17.503Z,92.70
2024-03-05T06:30:47.416Z,92.70
2024-03-05T06:33:16.247Z,92.60
2024-03-05T06:35:44.669Z,92.30
2024-03-05T06:38:15.205Z,92.30
2024-03-05T06:40:43.573Z,92.20
2024-03-05T06:43:17.018Z,92.70
2024-03-05T06:45:47.902Z,92.90
2024-03-05T06:48:24.057Z,92.80
2024-03-05T06:50:59.078Z,92.70
2024-03-05T06:53:46.209Z,92.50
2024-03-05T06:56:32.020Z,92.50
2024-03-05T06:59:00.507Z,92.40
2024-03-05T07:01:34.490Z,92.50
2024-03-05T07:04:06.998Z,93.00
2024-03-05T07:06:36.010Z,93.00
2024-03-05T07:09:05.938Z,93.30
2024-03-05T07:11:35.239Z,92.80
2024-03-05T07:14:03.732Z,93.10
2024-03-05T07:16:34.362Z,93.00
2024-03-05T07:19:04.464Z,92.90
2024-03-05T07:21:33.679Z,93.00
2024-03-05T07:24:01.947Z,92.90
2024-03-05T07:26:33.330Z,93.00
2024-03-05T07:29:01.658Z,93.30
2024-03-05T07:31:31.172Z,92.90
2024-03-05T07:34:00.144Z,93.20
2024-03-05T07:36:29.876Z,93.30
2024-03-05T07:38:58.882Z,93.90
2024-03-05T07:41:33.841Z,94.00
2024-03-05T07:44:05.744Z,93.60
2024-03-05T07:46:35.966Z,93.60
2024-03-05T07:49:05.317Z,93.20
2024-03-05T07:51:41.283Z,93.40
2024-03-05T07:54:15.457Z,93.60
2024-03-05T07:56:44.518Z,93.70
2024-03-05T07:59:15.255Z,94.40
2024-03-05T08:01:45.714Z,94.30
2024-03-05T08:04:15.379Z,94.30
2024-03-05T08:06:43.881Z,94.20
2024-03-05T08:09:13.356Z,94.90
2024-03-05T08:11:42.037Z,94.90
2024-03-05T08:14:10.525Z,94.90
2024-03-05T08:16:41.181Z,95.00
2024-03-05T08:19:12.267Z,95.20
2024-03-05T08:21:42.732Z,95.50
2024-03-05T08:24:12.673Z,95.00
2024-03-05T08:26:41.192Z,94.90
2024-03-05T08:29:10.195Z,95.70
2024-03-05T08:31:41.112Z,95.80
2024-03-05T08:34:09.485Z,95.30
2024-03-05T08:36:41.055Z,96.60
2024-03-05T08:39:19.427Z,96.30
2024-03-05T08:41:49.111Z,96.00
2024-03-05T08:44:18.133Z,96.20
2024-03-05T08:46:47.920Z,96.30
2024-03-05T08:49:17.773Z,96.90
2024-03-05T08:51:47.218Z,96.80
2024-03-05T08:54:18.025Z,96.60
2024-03-05T08:56:47.980Z,96.50
2024-03-05T08:59:16.328Z,96.50
2024-03-05T09:01:45.426Z,97.10
2024-03-05T09:04:15.235Z,96.90
2024-03-05T09:06:44.055Z,96.80
2024-03-05T09:09:13.376Z,96.70
2024-03-05T09:11:42.624Z,96.70
2024-03-05T09:14:11.546Z,97.20
2024-03-05T09:16:40.258Z,97.50
2024-03-05T09:19:12.059Z,97.20
2024-03-05T09:21:42.095Z,97.40
2024-03-05T09:24:10.535Z,97.50
2024-03-05T09:26:40.203Z,96.90
2024-03-05T09:29:10.146Z,97.10
2024-03-05T09:31:38.715Z,96.80
2024-03-05T09:34:07.114Z,96.60
2024-03-05T09:36:38.025Z,97.10
2024-03-05T09:39:10.837Z,96.80
2024-03-05T09:41:46.263Z,97.00
2024-03-05T09:44:15.524Z,97.40
2024-03-05T09:46:47.366Z,97.40
2024-03-05T09:49:23.118Z,98.00
2024-03-05T09:51:54.404Z,99.30
2024-03-05T09:54:24.274Z,99.20
2024-03-05T09:56:56.992Z,99.60
2024-03-05T09:59:25.245Z,99.30
2024-03-05T10:01:54.007Z,99.50
2024-03-05T10:04:27.797Z,99.50
2024-03-05T10:06:57.318Z,99.70
2024-03-05T10:09:28.530Z,99.90
2024-03-05T10:11:58.373Z,99.80
2024-03-05T10:14:27.103Z,99.90
2024-03-05T10:17:03.202Z,99.90
2024-03-05T10:19:43.651Z,99.90
2024-03-05T10:22:13.003Z,99.90
2024-03-05T10:24:43.406Z,99.90
2024-03-05T10:27:12.895Z,99.90
2024-03-05T10:29:43.232Z,99.90
2024-03-05T10:32:13.964Z,99.90
2024-03-05T10:34:47.460Z,99.90
2024-03-05T10:37:16.063Z,99.90
2024-03-05T10:39:46.937Z,99.90
2024-03-05T10:42:15.713Z,99.90
2024-03-05T10:44:46.127Z,99.90
2024-03-05T10:47:15.541Z,99.90
2024-03-05T10:49:47.134Z,99.90
2024-03-05T10:52:19.099Z,99.90
2024-03-05T10:54:50.872Z,99.90
2024-03-05T10:57:20.114Z,99.90
2024-03-05T10:59:53.868Z,99.90
2024-03-05T11:02:28.982Z,99.90
2024-03-05T11:05:00.747Z,99.90
2024-03-05T11:07:29.962Z,99.10
2024-03-05T11:10:00.949Z,98.00
2024-03-05T11:12:34.215Z,97.70
2024-03-05T11:15:03.704Z,97.30
2024-03-05T11:17:40.116Z,97.30
2024-03-05T11:20:14.244Z,97.20
2024-03-05T11:22:45.003Z,97.80
2024-03-05T11:25:33.033Z,97.70
2024-03-05T11:28:01.280Z,97.50
2024-03-05T11:30:31.173Z,96.60
2024-03-05T11:33:11.409Z,96.50
2024-03-05T11:35:40.081Z,97.80
2024-03-05T11:38:11.889Z,98.20
2024-03-05T11:40:44.129Z,98.90
2024-03-05T11:43:13.816Z,98.20
2024-03-05T11:45:50.209Z,98.60
2024-03-05T11:48:21.240Z,98.90
2024-03-05T11:50:50.364Z,97.10
2024-03-05T11:53:18.845Z,97.00
2024-03-05T11:55:53.594Z,96.30
2024-03-05T11:58:25.961Z,96.10
2024-03-05T12:01:02.721Z,96.60
2024-03-05T12:03:32.390Z,96.20
2024-03-05T12:06:01.551Z,96.40
2024-03-05T12:08:34.005Z,97.10
2024-03-05T12:11:05.712Z,95.20
2024-03-05T12:13:35.960Z,96.20
2024-03-05T12:16:12.030Z,96.00
2024-03-05T12:18:41.983Z,95.40
2024-03-05T12:21:11.892Z,94.80
2024-03-05T12:23:43.178Z,94.30
2024-03-05T12:26:15.009Z,94.30
2024-03-05T12:28:45.261Z,95.60
2024-03-05T12:31:13.760Z,95.30
2024-03-05T12:33:42.766Z,94.30
2024-03-05T12:36:56.279Z,94.40
2024-03-05T12:39:34.858Z,93.70
2024-03-05T12:42:07.613Z,93.00
2024-03-05T12:44:37.578Z,93.90
2024-03-05T12:47:15.963Z,93.60
2024-03-05T12:50:01.076Z,93.10
2024-03-05T12:52:33.052Z,92.50
2024-03-05T12:55:04.412Z,92.20
2024-03-05T12:57:37.999Z,92.50
2024-03-05T13:00:11.734Z,92.20
2024-03-05T13:02:40.780Z,91.80
2024-03-05T13:05:12.860Z,91.50
2024-03-05T13:07:41.224Z,92.40
2024-03-05T13:10:12.708Z,92.80
2024-03-05T13:12:44.079Z,93.30
2024-03-05T13:15:16.255Z,91.20
2024-03-05T13:17:45.081Z,91.70
2024-03-05T13:20:20.516Z,91.10
2024-03-05T13:22:49.027Z,90.10
2024-03-05T13:25:17.667Z,88.60
2024-03-05T13:27:49.035Z,88.80
2024-03-05T13:30:21.916Z,89.50
2024-03-05T13:32:54.228Z,89.80
2024-03-05T13:35:23.614Z,88.60
2024-03-05T13:37:52.166Z,89.70
2024-03-05T13:40:21.985Z,87.70
2024-03-05T13:42:56.104Z,88.00
2024-03-05T13:45:25.387Z,87.50
2024-03-05T13:47:55.608Z,88.80
2024-03-05T13:50:23.928Z,88.20
2024-03-05T13:52:54.322Z,88.30
2024-03-05T13:55:27.755Z,86.70
2024-03-05T13:58:01.625Z,86.00
2024-03-05T14:00:32.968Z,84.20
2024-03-05T14:03:03.391Z,85.50
2024-03-05T14:05:33.309Z,84.30
2024-03-05T14:08:04.327Z,86.60
2024-03-05T14:10:34.060Z,84.20
2024-03-05T14:13:14.598Z,85.80
2024-03-05T14:15:44.334Z,87.00
2024-03-05T14:18:13.052Z,88.10
2024-03-05T14:20:42.688Z,87.00
2024-03-05T14:23:12.792Z,88.50
2024-03-05T14:25:44.902Z,88.20
2024-03-05T14:28:15.793Z,88.00
2024-03-05T14:30:48.349Z,87.60
2024-03-05T14:33:17.978Z,89.20
2024-03-05T14:35:50.541Z,88.50
2024-03-05T14:38:19.817Z,89.30
2024-03-05T14:40:52.608Z,88.30
2024-03-05T14:43:22.576Z,88.90
2024-03-05T14:45:51.671Z,89.00
2024-03-05T14:48:20.104Z,88.10
2024-03-05T14:50:48.565Z,87.70
2024-03-05T14:53:16.759Z,87.90
2024-03-05T14:55:46.145Z,88.70
2024-03-05T14:58:15.690Z,88.00
2024-03-05T15:00:45.668Z,88.20
2024-03-05T15:03:18.779Z,87.70
2024-03-05T15:05:49.258Z,89.40
2024-03-05T15:08:17.631Z,88.70
2024-03-05T15:10:46.006Z,89.30
2024-03-05T15:13:14.544Z,90.30
2024-03-05T15:15:43.248Z,89.30
2024-03-05T15:18:17.009Z,90.00
2024-03-05T15:20:48.118Z,91.20
2024-03-05T15:23:16.364Z,90.50
2024-03-05T15:25:46.763Z,91.70
2024-03-05T15:28:15.570Z,92.40
2024-03-05T15:30:47.535Z,91.90
2024-03-05T15:33:17.929Z,92.90
2024-03-05T15:35:47.691Z,92.70
2024-03-05T15:38:15.995Z,93.70
2024-03-05T15:40:44.286Z,93.90
2024-03-05T15:43:15.702Z,92.50
2024-03-05T15:45:44.659Z,92.50
2024-03-05T15:48:17.376Z,93.30
2024-03-05T15:50:50.678Z,93.00
2024-03-05T15:53:21.632Z,94.50
2024-03-05T15:55:50.077Z,93.80
2024-03-05T15:58:41.671Z,94.80
2024-03-05T16:01:10.074Z,95.90
2024-03-05T16:03:57.166Z,95.50
2024-03-05T16:06:31.873Z,95.30
2024-03-05T16:09:02.414Z,94.80
2024-03-05T16:11:32.439Z,95.00
2024-03-05T16:14:05.795Z,95.60
2024-03-05T16:16:38.738Z,95.70
2024-03-05T16:19:10.204Z,95.10
2024-03-05T16:21:40.192Z,95.80
2024-03-05T16:24:13.180Z,96.70
2024-03-05T16:26:42.832Z,96.20
2024-03-05T16:29:11.217Z,96.10
2024-03-05T16:31:39.655Z,96.40
2024-03-05T16:34:11.458Z,95.50
2024-03-05T16:36:41.733Z,96.30
2024-03-05T16:39:16.274Z,95.70
2024-03-05T16:41:44.850Z,95.50
2024-03-05T16:44:14.445Z,95.50
2024-03-05T16:46:43.406Z,95.50
2024-03-05T16:49:13.977Z,94.50
2024-03-05T16:51:44.912Z,95.10
2024-03-05T16:54:15.571Z,94.80
2024-03-05T16:56:47.501Z,94.30
2024-03-05T16:59:16.316Z,93.30
2024-03-05T17:01:46.720Z,94.30
2024-03-05T17:04:22.314Z,94.30
2024-03-05T17:06:52.346Z,93.70
2024-03-05T17:09:24.629Z,93.90
2024-03-05T17:11:54.706Z,94.20
2024-03-05T17:14:25.148Z,93.40
2024-03-05T17:16:58.724Z,93.90
2024-03-05T17:19:29.159Z,93.80
2024-03-05T17:21:58.451Z,94.40
2024-03-05T17:24:27.432Z,94.80
2024-03-05T17:26:56.705Z,94.70
2024-03-05T17:29:25.784Z,95.00
2024-03-05T17:32:01.704Z,94.50
2024-03-05T17:34:32.329Z,94.90
2024-03-05T17:37:00.632Z,95.10
2024-03-05T17:39:37.775Z,95.20
2024-03-05T17:42:07.770Z,95.30
2024-03-05T17:44:36.095Z,95.60
2024-03-05T17:47:06.937Z,95.90
2024-03-05T17:49:36.766Z,95.90
2024-03-05T17:52:05.758Z,96.20
2024-03-05T17:54:37.257Z,95.90
2024-03-05T17:57:07.437Z,95.50
2024-03-05T17:59:39.239Z,94.90
2024-03-05T18:02:09.442Z,95.50
2024-03-05T18:04:44.872Z,95.60
2024-03-05T18:07:13.585Z,95.40
2024-03-05T18:09:45.319Z,95.40
2024-03-05T18:12:15.768Z,95.70
2024-03-05T18:14:44.746Z,95.70
2024-03-05T18:17:13.107Z,95.30
2024-03-05T18:19:44.652Z,95.60
2024-03-05T18:22:19.704Z,95.30
2024-03-05T18:24:48.011Z,95.10
2024-03-05T18:27:23.000Z,95.90
2024-03-05T18:29:56.890Z,96.10
2024-03-05T18:32:26.462Z,95.60
2024-03-05T18:35:09.872Z,95.70
2024-03-05T18:37:44.754Z,96.00
2024-03-05T18:40:15.842Z,96.60
2024-03-05T18:42:50.644Z,96.60
2024-03-05T18:45:29.822Z,96.60
2024-03-05T18:48:05.994Z,97.20
2024-03-05T18:50:42.547Z,98.00
2024-03-05T18:53:12.747Z,98.00
2024-03-05T18:55:42.253Z,98.20
2024-03-05T18:58:10.759Z,98.20
2024-03-05T19:00:39.603Z,98.10
2024-03-05T19:03:08.674Z,97.90
2024-03-05T19:05:42.192Z,98.20
2024-03-05T19:08:13.363Z,98.60
2024-03-05T19:10:44.523Z,98.50
2024-03-05T19:13:16.845Z,98.50
2024-03-05T19:15:46.078Z,98.70
2024-03-05T19:18:15.735Z,98.70
2024-03-05T19:20:44.154Z,98.60
2024-03-05T19:23:18.501Z,99.00
2024-03-05T19:25:46.763Z,98.70
2024-03-05T19:28:17.550Z,99.30
2024-03-05T19:30:45.831Z,98.70
2024-03-05T19:33:14.647Z,98.10
2024-03-05T19:35:43.030Z,98.70
2024-03-05T19:38:13.430Z,98.90
2024-03-05T19:40:42.170Z,99.60
2024-03-05T19:43:13.136Z,99.50
2024-03-05T19:45:42.124Z,98.80
2024-03-05T19:48:10.715Z,99.00
2024-03-05T19:50:40.882Z,98.70
2024-03-05T19:53:13.701Z,98.40
2024-03-05T19:55:44.133Z,98.60
2024-03-05T19:58:13.650Z,99.00
2024-03-05T20:00:44.092Z,99.20
2024-03-05T20:03:13.047Z,99.10
2024-03-05T20:05:41.293Z,99.30
2024-03-05T20:08:10.885Z,99.70
2024-03-05T20:10:39.713Z,99.60
2024-03-05T20:13:09.505Z,99.90
2024-03-05T20:15:40.061Z,99.90
2024-03-05T20:18:09.321Z,99.50
2024-03-05T20:20:38.027Z,99.40
2024-03-05T20:23:07.328Z,99.50
2024-03-05T20:25:36.633Z,99.60
2024-03-05T20:28:06.589Z,99.30
2024-03-05T20:30:38.573Z,99.30
2024-03-05T20:33:07.189Z,99.30
2024-03-05T20:35:35.607Z,99.20
2024-03-05T20:38:07.578Z,99.50
2024-03-05T20:40:36.971Z,99.60
2024-03-05T20:43:08.013Z,99.60
2024-03-05T20:45:39.474Z,99.30
2024-03-05T20:48:08.346Z,99.50
2024-03-05T20:50:36.864Z,99.50
2024-03-05T20:53:06.000Z,99.50
2024-03-05T20:55:38.942Z,99.50
2024-03-05T20:58:07.796Z,99.90
2024-03-05T21:00:37.136Z,99.30
2024-03-05T21:03:11.286Z,99.50
2024-03-05T21:05:44.845Z,99.30
2024-03-05T21:08:14.153Z,99.60
2024-03-05T21:10:44.868Z,99.20
2024-03-05T21:13:13.201Z,99.10
2024-03-05T21:15:43.684Z,99.40
2024-03-05T21:18:14.112Z,98.90
2024-03-05T21:20:42.755Z,99.20
2024-03-05T21:23:17.937Z,99.30
2024-03-05T21:26:02.855Z,99.30
2024-03-05T21:28:35.111Z,98.90
2024-03-05T21:31:03.439Z,98.10
2024-03-05T21:33:33.553Z,98.10
2024-03-05T21:36:02.777Z,97.90
2024-03-05T21:38:31.829Z,98.00
2024-03-05T21:41:01.461Z,98.30
2024-03-05T21:43:30.246Z,98.40
2024-03-05T21:46:01.090Z,98.90
2024-03-05T21:48:32.635Z,99.00
2024-03-05T21:51:06.685Z,99.10
2024-03-05T21:53:40.771Z,99.00
2024-03-05T21:56:09.325Z,98.80
2024-03-05T21:58:39.070Z,98.80
2024-03-05T22:01:07.544Z,98.40
2024-03-05T22:03:37.376Z,98.50
2024-03-05T22:06:14.846Z,98.70
2024-03-05T22:08:50.106Z,99.00
2024-03-05T22:11:19.218Z,98.80
2024-03-05T22:13:49.462Z,98.30
2024-03-05T22:16:17.709Z,98.50
2024-03-05T22:18:49.249Z,98.00
2024-03-05T22:21:19.010Z,98.10
2024-03-05T22:23:47.200Z,98.30
2024-03-05T22:26:15.653Z,98.30
2024-03-05T22:28:44.511Z,98.30
2024-03-05T22:31:12.907Z,98.20
2024-03-05T22:33:41.150Z,97.80
2024-03-05T22:36:11.666Z,97.60
2024-03-05T22:38:42.371Z,97.50
2024-03-05T22:41:10.803Z,97.90
2024-03-05T22:43:43.170Z,98.20
2024-03-05T22:46:11.393Z,98.60
2024-03-05T22:48:39.866Z,98.70
2024-03-05T22:51:10.247Z,98.50
2024-03-05T22:53:40.420Z,98.30
2024-03-05T22:56:09.324Z,99.00
2024-03-05T22:58:38.901Z,98.70
2024-03-05T23:01:08.740Z,98.70
2024-03-05T23:03:36.976Z,99.00
2024-03-05T23:06:11.862Z,98.70
2024-03-05T23:08:45.870Z,98.80
2024-03-05T23:11:18.985Z,98.80
2024-03-05T23:13:49.959Z,98.50
2024-03-05T23:16:19.117Z,98.60
2024-03-05T23:18:48.454Z,99.10
2024-03-05T23:21:16.985Z,99.00
2024-03-05T23:23:50.562Z,99.20
2024-03-05T23:26:20.739Z,99.40
2024-03-05T23:28:49.518Z,99.60
2024-03-05T23:31:18.681Z,99.60
2024-03-05T23:33:47.035Z,99.90
2024-03-05T23:36:15.115Z,99.90
2024-03-05T23:38:43.768Z,99.90
2024-03-05T23:41:20.964Z,99.10
2024-03-05T23:43:58.237Z,99.10
2024-03-05T23:46:27.544Z,99.00
2024-03-05T23:48:55.956Z,99.60
2024-03-05T23:51:24.728Z,99.90
2024-03-05T23:53:53.339Z,99.90
2024-03-05T23:56:23.433Z,99.70
2024-03-05T23:58:53.839Z,99.40
